createdAt,value
2023-01-23T00:00:17.998Z,33.85
2023-01-23T00:01:17.696Z,33.94
2023-01-23T00:02:17.848Z,33.85
2023-01-23T00:03:17.860Z,33.89
2023-01-23T00:04:18.048Z,33.85
2023-01-23T00:05:18.054Z,33.90
2023-01-23T00:06:18.122Z,33.87
2023-01-23T00:07:18.179Z,33.87
2023-01-23T00:08:18.322Z,33.91
2023-01-23T00:09:18.347Z,33.89
2023-01-23T00:10:18.831Z,33.86
2023-01-23T00:11:18.539Z,33.89
2023-01-23T00:12:18.613Z,33.85
2023-01-23T00:13:24.664Z,33.87
2023-01-23T00:14:18.764Z,33.84
2023-01-23T00:15:18.853Z,33.91
2023-01-23T00:16:18.959Z,33.89
2023-01-23T00:17:19.040Z,33.87
2023-01-23T00:18:19.111Z,33.83
2023-01-23T00:19:19.191Z,33.90
2023-01-23T00:20:19.575Z,33.91
2023-01-23T00:21:19.337Z,33.91
2023-01-23T00:22:19.416Z,33.83
2023-01-23T00:23:19.511Z,33.84
2023-01-23T00:24:19.568Z,33.85
2023-01-23T00:25:19.695Z,33.83
2023-01-23T00:26:19.739Z,33.97
2023-01-23T00:27:19.844Z,33.88
2023-01-23T00:28:19.928Z,33.88
2023-01-23T00:29:20.034Z,33.90
2023-01-23T00:30:20.257Z,33.85
2023-01-23T00:31:20.399Z,33.88
2023-01-23T00:32:20.290Z,33.86
2023-01-23T00:33:20.369Z,33.86
2023-01-23T00:34:20.454Z,33.90
2023-01-23T00:35:20.551Z,33.90
2023-01-23T00:36:20.620Z,33.85
2023-01-23T00:37:20.686Z,33.90
2023-01-23T00:38:20.890Z,33.90
2023-01-23T00:39:20.889Z,33.88
2023-01-23T00:40:21.249Z,33.86
2023-01-23T00:41:21.066Z,33.89
2023-01-23T00:42:21.123Z,33.90
2023-01-23T00:43:21.207Z,33.92
2023-01-23T00:44:27.248Z,33.85
2023-01-23T00:45:21.346Z,33.87
2023-01-23T00:46:21.528Z,33.86
2023-01-23T00:47:21.522Z,33.89
2023-01-23T00:48:21.575Z,33.84
2023-01-23T00:49:23.831Z,33.87
2023-01-23T00:50:21.816Z,33.93
2023-01-23T00:51:21.842Z,33.85
2023-01-23T00:52:21.883Z,33.94
2023-01-23T00:53:21.971Z,33.89
2023-01-23T00:54:22.022Z,33.87
2023-01-23T00:55:22.091Z,33.89
2023-01-23T00:56:22.216Z,33.91
2023-01-23T00:57:22.247Z,33.88
2023-01-23T00:58:22.316Z,33.87
2023-01-23T00:59:22.421Z,33.83
2023-01-23T01:00:22.502Z,33.88
2023-01-23T01:01:22.672Z,33.85
2023-01-23T01:02:22.657Z,33.87
2023-01-23T01:03:22.734Z,33.82
2023-01-23T01:04:22.823Z,33.85
2023-01-23T01:05:22.879Z,33.83
2023-01-23T01:06:22.962Z,33.90
2023-01-23T01:07:23.048Z,33.89
2023-01-23T01:08:23.153Z,33.84
2023-01-23T01:09:23.285Z,33.92
2023-01-23T01:10:23.341Z,33.89
2023-01-23T01:11:23.385Z,33.86
2023-01-23T01:12:23.484Z,33.88
2023-01-23T01:13:23.541Z,33.83
2023-01-23T01:14:23.625Z,33.92
2023-01-23T01:15:30.186Z,33.91
2023-01-23T01:16:23.812Z,33.95
2023-01-23T01:17:23.861Z,33.95
2023-01-23T01:18:23.947Z,33.87
2023-01-23T01:19:24.045Z,33.83
2023-01-23T01:20:24.109Z,33.84
2023-01-23T01:21:24.223Z,33.91
2023-01-23T01:22:24.272Z,33.91
2023-01-23T01:23:24.325Z,33.88
2023-01-23T01:24:24.405Z,33.84
2023-01-23T01:25:24.505Z,33.95
2023-01-23T01:26:24.613Z,33.85
2023-01-23T01:27:24.687Z,33.91
2023-01-23T01:28:24.758Z,33.87
2023-01-23T01:29:24.844Z,33.88
2023-01-23T01:30:24.907Z,33.91
2023-01-23T01:31:25.069Z,33.86
2023-01-23T01:32:25.082Z,33.87
2023-01-23T01:33:25.150Z,33.86
2023-01-23T01:34:25.221Z,33.86
2023-01-23T01:35:25.324Z,33.88
2023-01-23T01:36:25.409Z,33.88
2023-01-23T01:37:25.499Z,33.87
2023-01-23T01:38:25.549Z,33.88
2023-01-23T01:39:25.646Z,33.87
2023-01-23T01:40:25.715Z,33.86
2023-01-23T01:41:25.791Z,33.86
2023-01-23T01:42:25.852Z,33.83
2023-01-23T01:43:25.958Z,33.87
2023-01-23T01:44:26.014Z,33.90
2023-01-23T01:45:26.096Z,33.92
2023-01-23T01:46:32.206Z,33.86
2023-01-23T01:47:26.251Z,33.89
2023-01-23T01:48:26.356Z,33.93
2023-01-23T01:49:26.449Z,33.85
2023-01-23T01:50:26.518Z,33.85
2023-01-23T01:51:26.594Z,33.90
2023-01-23T01:52:26.685Z,33.87
2023-01-23T01:53:26.757Z,33.91
2023-01-23T01:54:26.879Z,33.85
2023-01-23T01:55:26.934Z,33.84
2023-01-23T01:56:27.020Z,33.88
2023-01-23T01:57:27.090Z,33.90
2023-01-23T01:58:27.166Z,33.83
2023-01-23T01:59:27.253Z,33.88
2023-01-23T02:00:27.356Z,33.91
2023-01-23T02:01:27.497Z,33.83
2023-01-23T02:02:27.446Z,33.85
2023-01-23T02:03:27.511Z,33.95
2023-01-23T02:04:27.589Z,33.83
2023-01-23T02:05:27.674Z,33.90
2023-01-23T02:06:27.738Z,33.87
2023-01-23T02:07:27.834Z,33.88
2023-01-23T02:08:27.931Z,33.94
2023-01-23T02:09:27.997Z,33.91
2023-01-23T02:10:28.079Z,33.93
2023-01-23T02:11:28.184Z,33.83
2023-01-23T02:12:28.223Z,33.91
2023-01-23T02:13:28.299Z,33.94
2023-01-23T02:14:28.379Z,33.92
2023-01-23T02:15:28.452Z,33.87
2023-01-23T02:16:28.605Z,33.87
2023-01-23T02:17:34.572Z,33.84
2023-01-23T02:18:28.703Z,33.91
2023-01-23T02:19:28.769Z,33.93
2023-01-23T02:20:28.845Z,33.85
2023-01-23T02:21:28.936Z,33.87
2023-01-23T02:22:29.012Z,33.82
2023-01-23T02:23:29.090Z,33.91
2023-01-23T02:24:29.181Z,33.81
2023-01-23T02:25:29.277Z,33.94
2023-01-23T02:26:29.371Z,33.85
2023-01-23T02:27:29.438Z,33.88
2023-01-23T02:28:29.525Z,33.85
2023-01-23T02:29:29.583Z,33.82
2023-01-23T02:30:29.671Z,33.92
2023-01-23T02:31:29.950Z,33.92
2023-01-23T02:32:29.844Z,33.87
2023-01-23T02:33:29.939Z,33.90
2023-01-23T02:34:30.012Z,33.83
2023-01-23T02:35:30.091Z,33.84
2023-01-23T02:36:30.156Z,33.85
2023-01-23T02:37:30.252Z,33.87
2023-01-23T02:38:30.332Z,33.84
2023-01-23T02:39:30.429Z,33.82
2023-01-23T02:40:30.517Z,33.89
2023-01-23T02:41:30.575Z,33.85
2023-01-23T02:42:30.655Z,33.85
2023-01-23T02:43:30.724Z,33.87
2023-01-23T02:44:30.778Z,33.84
2023-01-23T02:45:30.895Z,33.83
2023-01-23T02:46:30.967Z,33.85
2023-01-23T02:47:31.038Z,33.84
2023-01-23T02:48:37.110Z,33.95
2023-01-23T02:49:31.214Z,33.88
2023-01-23T02:50:31.278Z,33.83
2023-01-23T02:51:31.377Z,33.88
2023-01-23T02:52:31.477Z,33.91
2023-01-23T02:53:31.525Z,33.84
2023-01-23T02:54:31.600Z,33.92
2023-01-23T02:55:31.696Z,33.89
2023-01-23T02:56:31.764Z,33.87
2023-01-23T02:57:31.830Z,33.84
2023-01-23T02:58:31.879Z,33.87
2023-01-23T02:59:31.948Z,33.87
2023-01-23T03:00:32.024Z,33.95
2023-01-23T03:01:32.106Z,33.84
2023-01-23T03:02:32.235Z,33.86
2023-01-23T03:03:32.282Z,33.84
2023-01-23T03:04:32.354Z,33.81
2023-01-23T03:05:32.423Z,33.90
2023-01-23T03:06:32.488Z,33.90
2023-01-23T03:07:32.574Z,33.89
2023-01-23T03:08:32.662Z,33.88
2023-01-23T03:09:32.760Z,33.84
2023-01-23T03:10:32.821Z,33.83
2023-01-23T03:11:32.912Z,33.90
2023-01-23T03:12:33.021Z,33.94
2023-01-23T03:13:33.122Z,33.84
2023-01-23T03:14:33.216Z,33.84
2023-01-23T03:15:33.258Z,33.90
2023-01-23T03:16:33.384Z,33.83
2023-01-23T03:17:33.424Z,33.84
2023-01-23T03:18:40.036Z,33.86
2023-01-23T03:21:23.624Z,33.81
2023-01-23T03:22:24.708Z,34.11
2023-01-23T03:23:24.789Z,34.02
2023-01-23T03:24:24.888Z,33.96
2023-01-23T03:25:24.985Z,33.94
2023-01-23T03:26:25.098Z,33.96
2023-01-23T03:27:25.161Z,33.98
2023-01-23T03:28:25.229Z,33.87
2023-01-23T03:29:25.315Z,33.88
2023-01-23T03:30:25.395Z,33.92
2023-01-23T03:31:25.522Z,33.92
2023-01-23T03:32:25.562Z,33.87
2023-01-23T03:33:25.652Z,33.85
2023-01-23T03:34:25.715Z,33.81
2023-01-23T03:35:25.814Z,33.94
2023-01-23T03:36:25.896Z,33.88
2023-01-23T03:37:25.995Z,33.85
2023-01-23T03:38:26.039Z,33.83
2023-01-23T03:39:26.123Z,33.85
2023-01-23T03:40:26.213Z,33.84
2023-01-23T03:41:26.279Z,33.92
2023-01-23T03:42:26.363Z,33.81
2023-01-23T03:43:26.450Z,33.81
2023-01-23T03:44:26.523Z,33.83
2023-01-23T03:45:26.600Z,33.88
2023-01-23T03:46:26.675Z,33.90
2023-01-23T03:47:26.748Z,33.84
2023-01-23T03:48:26.871Z,33.85
2023-01-23T03:49:26.900Z,33.92
2023-01-23T03:50:26.993Z,33.85
2023-01-23T03:51:27.135Z,33.84
2023-01-23T03:52:33.104Z,33.88
2023-01-23T03:53:27.216Z,33.83
2023-01-23T03:54:27.291Z,33.84
2023-01-23T03:55:27.354Z,33.85
2023-01-23T03:56:27.457Z,33.84
2023-01-23T03:57:27.511Z,33.84
2023-01-23T03:58:27.593Z,33.90
2023-01-23T03:59:27.704Z,33.87
2023-01-23T04:00:27.755Z,33.83
2023-01-23T04:01:27.972Z,33.84
2023-01-23T04:02:28.014Z,33.83
2023-01-23T04:03:28.026Z,33.83
2023-01-23T04:04:28.124Z,33.87
2023-01-23T04:05:28.188Z,33.83
2023-01-23T04:06:28.248Z,33.91
2023-01-23T04:07:28.344Z,33.88
2023-01-23T04:08:28.439Z,33.77
2023-01-23T04:09:28.519Z,33.88
2023-01-23T04:10:29.632Z,33.87
2023-01-23T04:11:28.688Z,33.80
2023-01-23T04:12:28.780Z,33.85
2023-01-23T04:13:28.865Z,33.81
2023-01-23T04:14:28.941Z,33.83
2023-01-23T04:15:29.031Z,33.83
2023-01-23T04:16:29.169Z,33.80
2023-01-23T04:17:29.160Z,33.77
2023-01-23T04:18:29.258Z,33.77
2023-01-23T04:19:29.339Z,33.76
2023-01-23T04:20:29.441Z,33.88
2023-01-23T04:21:29.551Z,33.79
2023-01-23T04:22:29.610Z,33.75
2023-01-23T04:23:35.780Z,33.76
2023-01-23T04:24:29.777Z,33.83
2023-01-23T04:25:29.887Z,33.84
2023-01-23T04:26:29.943Z,33.77
2023-01-23T04:27:30.058Z,33.75
2023-01-23T04:28:30.146Z,33.86
2023-01-23T04:29:30.252Z,33.85
2023-01-23T04:30:30.377Z,33.80
2023-01-23T04:31:30.537Z,33.78
2023-01-23T04:32:30.520Z,33.85
2023-01-23T04:33:30.568Z,33.83
2023-01-23T04:34:30.618Z,33.78
2023-01-23T04:35:30.723Z,33.89
2023-01-23T04:36:30.798Z,33.85
2023-01-23T04:37:30.905Z,33.74
2023-01-23T04:38:30.999Z,33.81
2023-01-23T04:39:31.087Z,33.79
2023-01-23T04:40:31.200Z,33.76
2023-01-23T04:41:31.272Z,33.74
2023-01-23T04:42:31.342Z,33.84
2023-01-23T04:43:31.445Z,33.82
2023-01-23T04:44:31.547Z,33.78
2023-01-23T04:45:31.613Z,33.78
2023-01-23T04:46:31.689Z,33.72
2023-01-23T04:47:31.774Z,33.82
2023-01-23T04:48:31.842Z,33.81
2023-01-23T04:49:31.924Z,33.75
2023-01-23T04:50:32.036Z,33.74
2023-01-23T04:51:32.129Z,33.78
2023-01-23T04:52:32.213Z,33.78
2023-01-23T04:53:32.292Z,33.85
2023-01-23T04:54:38.331Z,33.74
2023-01-23T04:55:32.426Z,33.81
2023-01-23T04:56:32.512Z,33.75
2023-01-23T04:57:32.559Z,33.74
2023-01-23T04:58:32.656Z,33.77
2023-01-23T04:59:32.729Z,33.80
2023-01-23T05:00:32.807Z,33.80
2023-01-23T05:01:32.958Z,33.74
2023-01-23T05:02:32.999Z,33.87
2023-01-23T05:03:33.064Z,33.75
2023-01-23T05:04:33.151Z,33.77
2023-01-23T05:05:33.260Z,33.80
2023-01-23T05:06:33.304Z,33.77
2023-01-23T05:07:33.385Z,33.71
2023-01-23T05:08:33.509Z,33.81
2023-01-23T05:09:33.561Z,33.77
2023-01-23T05:10:33.622Z,33.81
2023-01-23T05:11:33.695Z,33.77
2023-01-23T05:12:33.783Z,33.76
2023-01-23T05:13:33.866Z,33.75
2023-01-23T05:14:33.974Z,33.73
2023-01-23T05:15:34.050Z,33.69
2023-01-23T05:16:34.117Z,33.78
2023-01-23T05:17:34.185Z,33.69
2023-01-23T05:18:34.296Z,33.74
2023-01-23T05:19:34.381Z,33.73
2023-01-23T05:20:34.477Z,33.71
2023-01-23T05:21:34.541Z,33.77
2023-01-23T05:22:34.630Z,33.76
2023-01-23T05:23:34.719Z,33.81
2023-01-23T05:24:34.811Z,33.76
2023-01-23T05:25:41.319Z,33.70
2023-01-23T05:26:34.989Z,33.77
2023-01-23T05:27:35.071Z,33.72
2023-01-23T05:28:35.153Z,33.76
2023-01-23T05:29:35.237Z,33.73
2023-01-23T05:30:35.422Z,33.86
2023-01-23T05:31:35.532Z,33.71
2023-01-23T05:32:35.485Z,33.82
2023-01-23T05:33:35.591Z,33.80
2023-01-23T05:34:35.664Z,33.79
2023-01-23T05:35:35.725Z,33.70
2023-01-23T05:36:35.853Z,33.79
2023-01-23T05:37:35.898Z,33.77
2023-01-23T05:38:35.961Z,33.74
2023-01-23T05:39:36.040Z,33.70
2023-01-23T05:40:36.126Z,33.75
2023-01-23T05:41:36.210Z,33.72
2023-01-23T05:42:36.318Z,33.76
2023-01-23T05:43:36.387Z,33.73
2023-01-23T05:44:36.495Z,33.70
2023-01-23T05:45:36.547Z,33.76
2023-01-23T05:46:36.639Z,33.73
2023-01-23T05:47:36.757Z,33.73
2023-01-23T05:48:36.831Z,33.70
2023-01-23T05:49:36.897Z,33.74
2023-01-23T05:50:36.983Z,33.74
2023-01-23T05:51:37.067Z,33.70
2023-01-23T05:52:37.163Z,33.79
2023-01-23T05:53:37.265Z,33.73
2023-01-23T05:54:37.324Z,33.76
2023-01-23T05:55:37.415Z,33.72
2023-01-23T05:56:43.461Z,33.71
2023-01-23T05:57:37.620Z,33.79
2023-01-23T05:58:37.643Z,33.70
2023-01-23T05:59:37.711Z,33.80
2023-01-23T06:00:37.771Z,33.71
2023-01-23T06:01:37.852Z,33.85
2023-01-23T06:02:38.025Z,33.76
2023-01-23T06:03:38.158Z,33.74
2023-01-23T06:04:38.148Z,33.73
2023-01-23T06:05:38.218Z,33.76
2023-01-23T06:06:38.321Z,33.70
2023-01-23T06:07:38.382Z,33.75
2023-01-23T06:08:38.518Z,33.72
2023-01-23T06:09:38.571Z,33.79
2023-01-23T06:10:38.666Z,33.77
2023-01-23T06:11:38.742Z,33.71
2023-01-23T06:12:38.823Z,33.70
2023-01-23T06:13:38.912Z,33.70
2023-01-23T06:14:39.006Z,33.69
2023-01-23T06:15:39.099Z,33.74
2023-01-23T06:16:39.219Z,33.74
2023-01-23T06:17:39.274Z,33.69
2023-01-23T06:18:39.303Z,33.74
2023-01-23T06:19:39.384Z,33.75
2023-01-23T06:20:39.521Z,33.74
2023-01-23T06:21:39.555Z,33.70
2023-01-23T06:22:39.639Z,33.70
2023-01-23T06:23:39.724Z,33.73
2023-01-23T06:24:39.829Z,33.69
2023-01-23T06:25:39.913Z,33.69
2023-01-23T06:26:39.986Z,33.77
2023-01-23T06:27:46.028Z,33.69
2023-01-23T06:28:40.129Z,33.74
2023-01-23T06:29:40.210Z,33.71
2023-01-23T06:30:40.410Z,33.69
2023-01-23T06:31:40.407Z,33.67
2023-01-23T06:32:40.497Z,33.73
2023-01-23T06:33:40.548Z,33.69
2023-01-23T06:34:40.633Z,33.76
2023-01-23T06:35:40.727Z,33.73
2023-01-23T06:36:40.843Z,33.72
2023-01-23T06:37:40.897Z,33.74
2023-01-23T06:38:40.990Z,33.74
2023-01-23T06:39:41.046Z,33.71
2023-01-23T06:40:41.121Z,33.73
2023-01-23T06:41:41.247Z,31.92
2023-01-23T06:42:41.280Z,31.06
2023-01-23T06:43:41.364Z,30.26
2023-01-23T06:44:41.486Z,29.09
2023-01-23T06:45:41.548Z,28.79
2023-01-23T06:46:41.686Z,29.17
2023-01-23T06:47:41.756Z,29.16
2023-01-23T06:48:41.822Z,29.46
2023-01-23T06:49:41.927Z,30.00
2023-01-23T06:50:42.047Z,30.26
2023-01-23T06:51:42.096Z,30.32
2023-01-23T06:52:42.176Z,30.39
2023-01-23T06:53:42.291Z,30.34
2023-01-23T06:54:42.349Z,30.59
2023-01-23T06:55:42.444Z,30.68
2023-01-23T06:56:42.539Z,30.84
2023-01-23T06:57:42.595Z,31.03
2023-01-23T06:58:48.651Z,31.07
2023-01-23T06:59:42.744Z,31.19
2023-01-23T07:00:42.827Z,31.22
2023-01-23T07:01:42.979Z,31.21
2023-01-23T07:02:45.490Z,31.24
2023-01-23T07:03:43.094Z,31.32
2023-01-23T07:04:43.155Z,31.37
2023-01-23T07:05:43.251Z,31.46
2023-01-23T07:06:43.338Z,31.37
2023-01-23T07:07:43.420Z,31.43
2023-01-23T07:08:43.508Z,31.44
2023-01-23T07:09:43.585Z,31.48
2023-01-23T07:10:43.663Z,31.59
2023-01-23T07:11:43.761Z,31.60
2023-01-23T07:12:43.827Z,31.72
2023-01-23T07:13:43.897Z,31.79
2023-01-23T07:14:43.992Z,31.69
2023-01-23T07:15:44.064Z,31.60
2023-01-23T07:16:44.149Z,31.68
2023-01-23T07:17:44.247Z,31.67
2023-01-23T07:18:44.329Z,31.72
2023-01-23T07:19:44.423Z,31.78
2023-01-23T07:20:44.530Z,31.86
2023-01-23T07:21:44.586Z,31.82
2023-01-23T07:22:44.662Z,31.83
2023-01-23T07:23:44.765Z,31.84
2023-01-23T07:24:44.848Z,31.97
2023-01-23T07:25:44.921Z,31.97
2023-01-23T07:26:45.001Z,31.92
2023-01-23T07:27:45.105Z,31.95
2023-01-23T07:28:45.175Z,31.92
2023-01-23T07:29:51.224Z,31.88
2023-01-23T07:30:45.362Z,31.93
2023-01-23T07:31:45.469Z,31.75
2023-01-23T07:32:45.511Z,31.69
2023-01-23T07:33:45.580Z,31.70
2023-01-23T07:34:45.647Z,31.81
2023-01-23T07:35:45.710Z,31.85
2023-01-23T07:36:45.805Z,31.81
2023-01-23T07:37:45.898Z,31.85
2023-01-23T07:38:45.983Z,31.76
2023-01-23T07:39:46.052Z,31.84
2023-01-23T07:40:46.143Z,32.02
2023-01-23T07:41:46.594Z,32.07
2023-01-23T07:42:46.306Z,32.06
2023-01-23T07:43:46.394Z,32.01
2023-01-23T07:44:46.477Z,31.97
2023-01-23T07:45:46.568Z,31.97
2023-01-23T07:46:46.737Z,31.99
2023-01-23T07:47:46.739Z,32.04
2023-01-23T07:48:46.827Z,32.06
2023-01-23T07:49:46.902Z,32.04
2023-01-23T07:50:47.014Z,32.00
2023-01-23T07:51:47.056Z,31.95
2023-01-23T07:52:47.156Z,32.02
2023-01-23T07:53:47.243Z,31.94
2023-01-23T07:54:47.330Z,31.97
2023-01-23T07:55:47.423Z,32.00
2023-01-23T07:56:47.495Z,31.87
2023-01-23T07:57:47.558Z,31.86
2023-01-23T07:58:48.342Z,31.94
2023-01-23T07:59:47.713Z,32.08
2023-01-23T08:00:53.789Z,32.23
2023-01-23T08:01:47.854Z,32.29
2023-01-23T08:02:47.955Z,32.37
2023-01-23T08:03:48.105Z,32.40
2023-01-23T08:04:48.091Z,32.36
2023-01-23T08:05:48.152Z,32.29
2023-01-23T08:06:48.240Z,32.34
2023-01-23T08:07:48.338Z,32.43
2023-01-23T08:08:48.416Z,32.52
2023-01-23T08:09:48.478Z,32.54
2023-01-23T08:10:48.581Z,32.57
2023-01-23T08:11:48.650Z,32.62
2023-01-23T08:12:48.740Z,32.60
2023-01-23T08:13:48.843Z,32.63
2023-01-23T08:14:48.899Z,32.59
2023-01-23T08:15:49.049Z,32.53
2023-01-23T08:16:49.086Z,32.45
2023-01-23T08:17:49.138Z,32.48
2023-01-23T08:18:49.211Z,32.33
2023-01-23T08:19:49.334Z,32.33
2023-01-23T08:20:49.352Z,32.28
2023-01-23T08:21:49.431Z,32.24
2023-01-23T08:22:49.520Z,32.24
2023-01-23T08:23:49.616Z,32.22
2023-01-23T08:24:49.741Z,32.19
2023-01-23T08:25:50.084Z,32.21
2023-01-23T08:26:49.890Z,32.25
2023-01-23T08:27:49.980Z,32.17
2023-01-23T08:28:50.051Z,32.17
2023-01-23T08:29:50.146Z,32.08
2023-01-23T08:30:50.252Z,32.12
2023-01-23T08:31:56.267Z,32.10
2023-01-23T08:32:50.379Z,32.11
2023-01-23T08:33:50.465Z,32.13
2023-01-23T08:34:50.572Z,32.13
2023-01-23T08:35:50.653Z,32.14
2023-01-23T08:36:50.693Z,32.15
2023-01-23T08:37:50.816Z,32.21
2023-01-23T08:38:50.880Z,32.20
2023-01-23T08:39:50.950Z,32.16
2023-01-23T08:40:51.062Z,32.15
2023-01-23T08:41:51.157Z,32.18
2023-01-23T08:42:51.199Z,32.17
2023-01-23T08:43:51.290Z,32.20
2023-01-23T08:44:51.381Z,32.27
2023-01-23T08:45:51.531Z,32.28
2023-01-23T08:46:51.552Z,32.30
2023-01-23T08:47:51.603Z,32.34
2023-01-23T08:48:51.687Z,32.35
2023-01-23T08:49:51.781Z,32.38
2023-01-23T08:50:51.897Z,32.37
2023-01-23T08:51:51.975Z,32.40
2023-01-23T08:52:52.092Z,32.42
2023-01-23T08:53:52.102Z,30.66
2023-01-23T08:54:52.191Z,29.96
2023-01-23T08:55:52.284Z,31.18
2023-01-23T08:56:52.346Z,31.71
2023-01-23T08:57:52.431Z,32.02
2023-01-23T08:58:52.522Z,32.80
2023-01-23T08:59:52.579Z,32.86
2023-01-23T09:00:52.688Z,32.97
2023-01-23T09:01:52.775Z,32.90
2023-01-23T09:02:58.753Z,32.60
2023-01-23T09:03:52.863Z,32.14
2023-01-23T09:04:52.968Z,31.89
2023-01-23T09:05:53.015Z,31.58
2023-01-23T09:06:53.111Z,31.45
2023-01-23T09:07:53.197Z,31.44
2023-01-23T09:08:53.269Z,31.39
2023-01-23T09:09:53.355Z,31.35
2023-01-23T09:10:53.482Z,31.37
2023-01-23T09:11:53.546Z,31.37
2023-01-23T09:12:53.644Z,31.35
2023-01-23T09:13:54.204Z,31.30
2023-01-23T09:14:53.792Z,31.28
2023-01-23T09:15:53.888Z,31.29
2023-01-23T09:16:54.091Z,31.26
2023-01-23T09:17:54.042Z,31.24
2023-01-23T09:18:54.107Z,31.24
2023-01-23T09:19:54.198Z,31.24
2023-01-23T09:20:54.321Z,31.31
2023-01-23T09:21:54.394Z,31.33
2023-01-23T09:22:54.507Z,31.35
2023-01-23T09:23:54.564Z,31.37
2023-01-23T09:24:54.657Z,31.37
2023-01-23T09:25:54.745Z,31.45
2023-01-23T09:26:54.865Z,31.47
2023-01-23T09:27:54.950Z,31.50
2023-01-23T09:28:55.022Z,31.52
2023-01-23T09:29:55.093Z,31.50
2023-01-23T09:30:55.281Z,31.49
2023-01-23T09:31:55.271Z,31.53
2023-01-23T09:32:55.318Z,31.54
2023-01-23T09:34:01.454Z,31.62
2023-01-23T09:34:55.486Z,31.69
2023-01-23T09:35:55.586Z,31.64
2023-01-23T09:36:55.682Z,31.66
2023-01-23T09:37:58.992Z,31.71
2023-01-23T09:38:55.859Z,31.81
2023-01-23T09:39:55.954Z,31.78
2023-01-23T09:40:56.006Z,31.76
2023-01-23T09:41:56.090Z,31.78
2023-01-23T09:42:56.184Z,31.73
2023-01-23T09:43:56.257Z,31.68
2023-01-23T09:44:56.349Z,31.70
2023-01-23T09:45:56.568Z,31.67
2023-01-23T09:46:56.540Z,31.65
2023-01-23T09:47:56.614Z,31.66
2023-01-23T09:48:56.689Z,31.69
2023-01-23T09:49:56.758Z,31.66
2023-01-23T09:50:56.901Z,31.65
2023-01-23T09:51:56.927Z,31.65
2023-01-23T09:52:57.003Z,31.66
2023-01-23T09:53:57.092Z,31.82
2023-01-23T09:54:57.195Z,32.10
2023-01-23T09:55:58.117Z,32.16
2023-01-23T09:56:57.363Z,32.24
2023-01-23T09:57:57.473Z,32.35
2023-01-23T09:58:57.544Z,32.33
2023-01-23T09:59:59.790Z,32.49
2023-01-23T10:00:57.758Z,32.42
2023-01-23T10:01:57.815Z,32.30
2023-01-23T10:02:58.039Z,32.13
2023-01-23T10:03:58.025Z,31.99
2023-01-23T10:05:04.075Z,31.92
2023-01-23T10:05:58.137Z,31.98
2023-01-23T10:06:58.217Z,31.91
2023-01-23T10:07:58.307Z,31.86
2023-01-23T10:08:58.370Z,31.80
2023-01-23T10:10:00.424Z,31.69
2023-01-23T10:10:58.548Z,31.76
2023-01-23T10:11:58.577Z,31.68
2023-01-23T10:12:58.650Z,31.69
2023-01-23T10:13:58.720Z,31.79
2023-01-23T10:14:58.818Z,31.78
2023-01-23T10:15:58.923Z,31.77
2023-01-23T10:16:59.003Z,31.72
2023-01-23T10:18:00.222Z,31.74
2023-01-23T10:18:59.167Z,31.72
2023-01-23T10:19:59.245Z,31.73
2023-01-23T10:20:59.355Z,31.73
2023-01-23T10:21:59.449Z,31.72
2023-01-23T10:22:59.521Z,31.71
2023-01-23T10:23:59.590Z,31.76
2023-01-23T10:24:59.677Z,31.66
2023-01-23T10:25:59.764Z,31.75
2023-01-23T10:26:59.881Z,31.79
2023-01-23T10:27:59.945Z,31.92
2023-01-23T10:29:00.034Z,31.87
2023-01-23T10:30:00.095Z,31.82
2023-01-23T10:31:00.272Z,31.93
2023-01-23T10:32:00.227Z,31.94
2023-01-23T10:33:00.347Z,31.94
2023-01-23T10:34:03.462Z,31.97
2023-01-23T10:35:00.481Z,32.02
2023-01-23T10:36:06.566Z,32.04
2023-01-23T10:37:00.633Z,32.05
2023-01-23T10:38:00.773Z,32.11
2023-01-23T10:39:00.826Z,32.11
2023-01-23T10:40:00.919Z,32.14
2023-01-23T10:41:01.004Z,32.15
2023-01-23T10:42:02.662Z,32.12
2023-01-23T10:43:01.119Z,32.17
2023-01-23T10:44:01.247Z,32.20
2023-01-23T10:45:01.271Z,32.23
2023-01-23T10:46:01.390Z,32.23
2023-01-23T10:47:01.420Z,32.21
2023-01-23T10:48:03.665Z,32.31
2023-01-23T10:49:01.608Z,32.24
2023-01-23T10:50:01.684Z,32.35
2023-01-23T10:51:01.751Z,32.25
2023-01-23T10:52:01.834Z,32.37
2023-01-23T10:53:01.930Z,32.37
2023-01-23T10:54:06.234Z,32.34
2023-01-23T10:55:02.180Z,32.45
2023-01-23T10:56:02.239Z,32.43
2023-01-23T10:57:02.324Z,31.09
2023-01-23T10:58:02.412Z,30.75
2023-01-23T10:59:02.497Z,30.25
2023-01-23T11:00:02.628Z,30.63
2023-01-23T11:01:02.718Z,30.94
2023-01-23T11:02:02.833Z,31.02
2023-01-23T11:03:02.833Z,31.21
2023-01-23T11:04:02.835Z,31.35
2023-01-23T11:05:02.935Z,31.40
2023-01-23T11:06:03.043Z,31.46
2023-01-23T11:07:09.113Z,31.52
2023-01-23T11:08:03.153Z,31.61
2023-01-23T11:09:03.264Z,31.64
2023-01-23T11:10:03.283Z,31.62
2023-01-23T11:11:03.389Z,31.59
2023-01-23T11:12:03.491Z,31.61
2023-01-23T11:13:03.514Z,31.78
2023-01-23T11:14:03.636Z,31.69
2023-01-23T11:15:03.724Z,31.68
2023-01-23T11:16:03.894Z,31.69
2023-01-23T11:17:03.947Z,31.68
2023-01-23T11:18:03.969Z,31.69
2023-01-23T11:19:04.038Z,31.66
2023-01-23T11:20:04.116Z,31.73
2023-01-23T11:21:04.175Z,31.71
2023-01-23T11:22:04.281Z,31.71
2023-01-23T11:23:04.380Z,31.75
2023-01-23T11:24:04.436Z,31.73
2023-01-23T11:25:04.485Z,31.76
2023-01-23T11:26:04.594Z,31.75
2023-01-23T11:27:04.679Z,31.77
2023-01-23T11:28:04.785Z,31.88
2023-01-23T11:29:04.836Z,30.41
2023-01-23T11:30:04.945Z,30.60
2023-01-23T11:31:13.664Z,30.61
2023-01-23T11:32:05.287Z,30.87
2023-01-23T11:33:05.330Z,30.96
2023-01-23T11:34:05.342Z,31.02
2023-01-23T11:35:06.801Z,31.19
2023-01-23T11:36:05.503Z,31.35
2023-01-23T11:37:05.564Z,31.52
2023-01-23T11:38:11.696Z,31.52
2023-01-23T11:39:05.773Z,31.48
2023-01-23T11:40:05.837Z,31.52
2023-01-23T11:41:05.902Z,31.48
2023-01-23T11:42:05.977Z,31.48
2023-01-23T11:43:06.068Z,31.46
2023-01-23T11:44:07.903Z,31.47
2023-01-23T11:45:06.247Z,31.48
2023-01-23T11:46:06.343Z,31.50
2023-01-23T11:47:06.354Z,31.54
2023-01-23T11:48:06.451Z,31.60
2023-01-23T11:49:06.526Z,31.52
2023-01-23T11:50:06.657Z,31.62
2023-01-23T11:51:06.805Z,31.61
2023-01-23T11:52:06.832Z,31.53
2023-01-23T11:53:06.883Z,31.60
2023-01-23T11:54:07.019Z,31.61
2023-01-23T11:55:07.029Z,31.54
2023-01-23T11:56:07.117Z,31.65
2023-01-23T11:57:07.197Z,31.65
2023-01-23T11:58:07.269Z,31.56
2023-01-23T11:59:07.337Z,31.60
2023-01-23T12:00:07.424Z,31.67
2023-01-23T12:01:07.498Z,31.61
2023-01-23T12:02:07.631Z,31.61
2023-01-23T12:03:07.702Z,31.70
2023-01-23T12:04:07.807Z,31.64
2023-01-23T12:05:07.812Z,31.66
2023-01-23T12:10:43.546Z,31.83
2023-01-23T12:11:45.717Z,32.02
2023-01-23T12:12:44.669Z,31.95
2023-01-23T12:13:44.755Z,31.88
2023-01-23T12:14:44.851Z,31.83
2023-01-23T12:15:45.054Z,31.78
2023-01-23T12:16:45.028Z,31.90
2023-01-23T12:17:45.114Z,31.80
2023-01-23T12:18:45.152Z,31.87
2023-01-23T12:19:45.281Z,31.80
2023-01-23T12:20:47.458Z,31.80
2023-01-23T12:21:45.405Z,31.80
2023-01-23T12:22:45.487Z,31.84
2023-01-23T12:23:45.605Z,31.83
2023-01-23T12:24:45.669Z,31.90
2023-01-23T12:25:45.696Z,31.83
2023-01-23T12:26:45.801Z,31.85
2023-01-23T12:27:45.861Z,31.96
2023-01-23T12:28:45.938Z,31.88
2023-01-23T12:29:46.020Z,31.88
2023-01-23T12:30:46.105Z,31.82
2023-01-23T12:31:46.314Z,31.88
2023-01-23T12:32:46.273Z,31.82
2023-01-23T12:33:46.337Z,31.83
2023-01-23T12:34:46.453Z,31.98
2023-01-23T12:35:46.505Z,31.84
2023-01-23T12:37:05.765Z,31.85
2023-01-23T12:37:46.691Z,31.85
2023-01-23T12:38:46.709Z,31.85
2023-01-23T12:39:46.830Z,31.90
2023-01-23T12:40:46.871Z,31.87
2023-01-23T12:41:52.904Z,31.96
2023-01-23T12:42:47.040Z,31.98
2023-01-23T12:43:47.136Z,31.99
2023-01-23T12:44:47.176Z,31.90
2023-01-23T12:45:47.264Z,32.01
2023-01-23T12:46:47.373Z,31.91
2023-01-23T12:47:47.429Z,32.09
2023-01-23T12:48:47.526Z,31.99
2023-01-23T12:49:47.612Z,31.94
2023-01-23T12:50:48.034Z,32.04
2023-01-23T12:51:47.802Z,32.02
2023-01-23T12:52:47.967Z,31.94
2023-01-23T12:53:47.980Z,31.98
2023-01-23T12:54:48.087Z,30.34
2023-01-23T12:55:48.142Z,30.18
2023-01-23T12:56:48.248Z,30.41
2023-01-23T12:58:48.422Z,31.04
2023-01-23T12:59:48.525Z,31.41
2023-01-23T13:00:48.603Z,31.54